createdAt,value
2023-05-14T00:01:54.137Z,20.90
2023-05-14T00:05:20.994Z,19.20
2023-05-14T00:08:47.809Z,19.00
2023-05-14T00:12:14.870Z,17.90
2023-05-14T00:15:41.426Z,18.30
2023-05-14T00:19:08.757Z,18.30
2023-05-14T00:22:37.513Z,17.70
2023-05-14T00:26:10.604Z,18.70
2023-05-14T00:29:40.167Z,17.10
2023-05-14T00:33:07.440Z,17.70
2023-05-14T00:36:34.292Z,20.60
2023-05-14T00:40:01.242Z,17.00
2023-05-14T00:43:27.975Z,17.50
2023-05-14T00:46:56.529Z,16.80
2023-05-14T00:50:24.594Z,15.90
2023-05-14T00:53:56.311Z,14.50
2023-05-14T00:57:23.628Z,18.30
2023-05-14T01:00:50.871Z,17.60
2023-05-14T01:04:19.225Z,13.70
2023-05-14T01:07:56.714Z,16.50
2023-05-14T01:11:31.246Z,17.10
2023-05-14T01:15:06.000Z,18.80
2023-05-14T01:18:35.279Z,16.00
2023-05-14T01:22:01.823Z,16.90
2023-05-14T01:25:28.959Z,18.30
2023-05-14T01:28:58.830Z,16.90
2023-05-14T01:32:26.948Z,17.60
2023-05-14T01:35:54.830Z,18.70
2023-05-14T01:39:22.109Z,28.00
2023-05-14T01:42:52.084Z,18.90
2023-05-14T01:46:21.236Z,16.30
2023-05-14T01:49:47.947Z,18.50
2023-05-14T01:53:14.810Z,18.00
2023-05-14T01:56:43.443Z,18.20
2023-05-14T02:00:14.408Z,22.10
2023-05-14T02:03:40.847Z,19.80
2023-05-14T02:07:08.442Z,17.20
2023-05-14T02:10:34.884Z,19.00
2023-05-14T02:14:01.544Z,17.70
2023-05-14T02:17:29.167Z,16.70
2023-05-14T02:20:58.324Z,19.00
2023-05-14T02:24:25.491Z,17.20
2023-05-14T02:27:52.400Z,16.10
2023-05-14T02:31:20.002Z,15.30
2023-05-14T02:34:46.792Z,15.70
2023-05-14T02:38:13.719Z,15.60
2023-05-14T02:41:40.588Z,16.20
2023-05-14T02:45:08.677Z,17.10
2023-05-14T02:48:36.245Z,21.40
2023-05-14T02:52:03.819Z,14.50
2023-05-14T02:55:31.083Z,16.10
2023-05-14T02:58:58.558Z,15.70
2023-05-14T03:02:26.759Z,18.80
2023-05-14T03:05:55.084Z,21.70
2023-05-14T03:09:22.249Z,21.90
2023-05-14T03:12:51.020Z,20.50
2023-05-14T03:16:18.724Z,17.60
2023-05-14T03:19:45.516Z,18.80
2023-05-14T03:23:12.598Z,20.60
2023-05-14T03:26:39.653Z,15.90
2023-05-14T03:30:08.727Z,17.20
2023-05-14T03:33:35.619Z,17.30
2023-05-14T03:37:02.213Z,17.10
2023-05-14T03:40:28.949Z,20.90
2023-05-14T03:43:55.846Z,23.30
2023-05-14T03:47:22.595Z,21.90
2023-05-14T03:50:49.678Z,16.60
2023-05-14T03:54:16.589Z,20.40
2023-05-14T03:57:44.012Z,20.60
2023-05-14T04:01:10.692Z,20.80
2023-05-14T04:04:37.756Z,19.50
2023-05-14T04:08:05.331Z,22.90
2023-05-14T04:11:32.382Z,20.50
2023-05-14T04:15:01.225Z,23.70
2023-05-14T04:18:28.627Z,20.40
2023-05-14T04:21:56.102Z,19.30
2023-05-14T04:25:24.308Z,19.10
2023-05-14T04:28:51.268Z,18.70
2023-05-14T04:32:18.871Z,19.40
2023-05-14T04:35:46.557Z,22.10
2023-05-14T04:39:13.707Z,17.20
2023-05-14T04:42:41.260Z,22.10
2023-05-14T04:46:09.738Z,21.20
2023-05-14T04:49:39.470Z,21.60
2023-05-14T04:53:06.334Z,18.70
2023-05-14T04:56:33.116Z,19.40
2023-05-14T05:00:00.622Z,17.00
2023-05-14T05:03:27.480Z,16.30
2023-05-14T05:06:54.598Z,22.20
2023-05-14T05:10:21.611Z,16.30
2023-05-14T05:13:48.485Z,21.00
2023-05-14T05:17:15.248Z,14.50
2023-05-14T05:20:41.835Z,15.70
2023-05-14T05:24:09.457Z,19.30
2023-05-14T05:27:36.508Z,17.10
2023-05-14T05:31:03.470Z,13.80
2023-05-14T05:34:30.158Z,17.50
2023-05-14T05:38:00.460Z,14.90
2023-05-14T05:41:30.367Z,18.10
2023-05-14T05:44:57.627Z,14.10
2023-05-14T05:48:24.770Z,13.10
2023-05-14T05:51:52.050Z,13.10
2023-05-14T05:55:19.626Z,16.10
2023-05-14T05:58:47.189Z,14.60
2023-05-14T06:02:14.333Z,14.70
2023-05-14T06:05:42.112Z,13.30
2023-05-14T06:09:09.348Z,16.20
2023-05-14T06:12:36.567Z,13.40
2023-05-14T06:16:03.851Z,10.90
2023-05-14T06:19:31.142Z,13.50
2023-05-14T06:22:58.349Z,15.80
2023-05-14T06:26:26.365Z,12.10
2023-05-14T06:29:53.544Z,11.70
2023-05-14T06:33:21.461Z,16.20
2023-05-14T06:36:48.402Z,12.50
2023-05-14T06:40:16.964Z,9.70
2023-05-14T06:43:44.228Z,14.20
2023-05-14T06:47:12.033Z,12.00
2023-05-14T06:50:38.648Z,11.40
2023-05-14T06:54:05.736Z,11.70
2023-05-14T06:57:34.276Z,11.80
2023-05-14T07:01:01.855Z,14.00
2023-05-14T07:04:28.718Z,12.00
2023-05-14T07:07:55.850Z,11.60
2023-05-14T07:11:23.702Z,10.80
2023-05-14T07:14:53.573Z,9.80
2023-05-14T07:18:20.500Z,9.40
2023-05-14T07:21:47.341Z,13.30
2023-05-14T07:25:14.418Z,9.80
2023-05-14T07:28:41.235Z,19.60
2023-05-14T07:32:08.125Z,10.60
2023-05-14T07:35:35.252Z,8.50
2023-05-14T07:39:02.620Z,11.40
2023-05-14T07:42:36.579Z,10.80
2023-05-14T07:46:04.500Z,10.80
2023-05-14T07:49:31.572Z,8.90
2023-05-14T07:52:58.820Z,10.30
2023-05-14T07:56:26.112Z,12.20
2023-05-14T07:59:53.445Z,11.90
2023-05-14T08:03:21.615Z,12.20
2023-05-14T08:06:49.091Z,14.30
2023-05-14T08:10:16.203Z,11.50
2023-05-14T08:13:45.262Z,14.00
2023-05-14T08:17:12.315Z,13.50
2023-05-14T08:20:40.127Z,9.40
2023-05-14T08:24:07.680Z,7.10
2023-05-14T08:27:35.569Z,5.70
2023-05-14T08:31:06.339Z,8.70
2023-05-14T08:34:34.056Z,5.70
2023-05-14T08:38:01.547Z,10.30
2023-05-14T08:41:29.590Z,11.60
2023-05-14T08:45:02.463Z,6.90
2023-05-14T08:48:33.835Z,8.50
2023-05-14T08:52:02.124Z,5.50
2023-05-14T08:55:30.024Z,5.60
2023-05-14T08:58:57.150Z,7.80
2023-05-14T09:02:29.076Z,5.60
2023-05-14T09:05:58.667Z,7.90
2023-05-14T09:09:30.042Z,2.80
2023-05-14T09:13:01.362Z,5.40
2023-05-14T09:16:29.852Z,6.90
2023-05-14T09:19:57.583Z,5.20
2023-05-14T09:23:27.022Z,4.10
2023-05-14T09:26:56.445Z,3.80
2023-05-14T09:30:23.457Z,6.30
2023-05-14T09:33:57.754Z,6.00
2023-05-14T09:37:26.496Z,2.50
2023-05-14T09:40:57.096Z,6.30
2023-05-14T09:44:25.082Z,6.20
2023-05-14T09:47:53.673Z,3.60
2023-05-14T09:51:22.418Z,5.20
2023-05-14T09:54:49.980Z,7.30
2023-05-14T09:58:17.143Z,6.30
2023-05-14T10:01:58.782Z,4.40
2023-05-14T10:05:28.801Z,5.50
2023-05-14T10:08:58.487Z,4.20
2023-05-14T10:12:30.700Z,5.80
2023-05-14T10:16:03.495Z,9.10
2023-05-14T10:19:38.045Z,4.40
2023-05-14T10:23:07.769Z,6.80
2023-05-14T10:26:38.825Z,5.70
2023-05-14T10:30:10.502Z,3.50
2023-05-14T10:33:50.903Z,4.70
2023-05-14T10:37:19.603Z,4.60
2023-05-14T10:40:49.076Z,12.50
2023-05-14T10:44:17.618Z,5.00
2023-05-14T10:47:46.896Z,7.80
2023-05-14T10:51:26.720Z,6.00
2023-05-14T10:54:56.102Z,8.20
2023-05-14T10:58:24.093Z,5.80
2023-05-14T11:01:52.018Z,7.40
2023-05-14T11:05:20.322Z,7.20
2023-05-14T11:08:47.270Z,4.90
2023-05-14T11:12:17.685Z,6.00
2023-05-14T11:15:48.538Z,7.60
2023-05-14T11:19:15.872Z,5.30
2023-05-14T11:22:45.047Z,5.80
2023-05-14T11:26:13.095Z,6.70
2023-05-14T11:29:44.979Z,7.40
2023-05-14T11:33:12.187Z,7.30
2023-05-14T11:36:42.559Z,8.30
2023-05-14T11:40:18.291Z,12.30
2023-05-14T11:43:45.620Z,8.00
2023-05-14T11:47:15.993Z,5.00
2023-05-14T11:50:47.610Z,6.60
2023-05-14T11:54:17.294Z,4.70
2023-05-14T11:57:45.224Z,5.30
2023-05-14T12:01:16.786Z,6.60
2023-05-14T12:04:45.305Z,6.70
2023-05-14T12:08:25.017Z,6.00
2023-05-14T12:11:55.664Z,5.90
2023-05-14T12:15:22.553Z,5.40
2023-05-14T12:18:52.556Z,8.20
2023-05-14T12:22:30.862Z,6.10
2023-05-14T12:26:03.089Z,9.00
2023-05-14T12:29:30.072Z,5.70
2023-05-14T12:32:57.333Z,7.30
2023-05-14T12:36:25.058Z,5.00
2023-05-14T12:39:52.270Z,5.50
2023-05-14T12:43:22.220Z,3.70
2023-05-14T12:46:49.265Z,4.80
2023-05-14T12:50:16.771Z,9.20
2023-05-14T12:53:44.381Z,5.20
2023-05-14T12:57:11.738Z,5.20
2023-05-14T13:00:39.351Z,5.20
2023-05-14T13:04:06.910Z,6.50
2023-05-14T13:07:34.456Z,9.50
2023-05-14T13:11:01.138Z,7.50
2023-05-14T13:14:28.868Z,6.60
2023-05-14T13:17:56.033Z,5.80
2023-05-14T13:21:24.877Z,7.80
2023-05-14T13:24:51.870Z,4.20
2023-05-14T13:28:18.845Z,5.30
2023-05-14T13:31:46.350Z,9.70
2023-05-14T13:35:13.719Z,6.40
2023-05-14T13:38:41.549Z,4.90
2023-05-14T13:42:09.336Z,7.50
2023-05-14T13:45:36.965Z,7.40
2023-05-14T13:49:03.919Z,4.70
2023-05-14T13:52:31.244Z,5.70
2023-05-14T13:55:59.298Z,8.30
2023-05-14T13:59:26.250Z,10.50
2023-05-14T14:02:53.119Z,7.70
2023-05-14T14:06:20.199Z,5.60
2023-05-14T14:09:48.606Z,6.10
2023-05-14T14:13:15.809Z,5.50
2023-05-14T14:16:44.026Z,4.70
2023-05-14T14:20:13.007Z,6.30
2023-05-14T14:23:39.592Z,5.70
2023-05-14T14:27:07.445Z,6.10
2023-05-14T14:30:35.994Z,4.80
2023-05-14T14:34:03.148Z,4.90
2023-05-14T14:37:33.163Z,6.80
2023-05-14T14:41:00.561Z,6.80
2023-05-14T14:44:27.583Z,3.10
2023-05-14T14:48:15.184Z,5.50
2023-05-14T14:51:44.650Z,6.10
2023-05-14T14:55:17.367Z,4.50
2023-05-14T14:58:45.646Z,6.60
2023-05-14T15:02:12.904Z,8.20
2023-05-14T15:05:41.066Z,4.00
2023-05-14T15:09:09.460Z,9.60
2023-05-14T15:12:36.968Z,8.50
2023-05-14T15:16:07.218Z,4.70
2023-05-14T15:19:34.884Z,5.90
2023-05-14T15:23:02.020Z,6.70
2023-05-14T15:26:29.301Z,4.30
2023-05-14T15:29:57.573Z,4.90
2023-05-14T15:33:24.583Z,5.60
2023-05-14T15:36:51.702Z,8.10
2023-05-14T15:40:20.225Z,6.50
2023-05-14T15:43:47.458Z,8.10
2023-05-14T15:47:14.308Z,7.40
2023-05-14T15:50:43.521Z,4.30
2023-05-14T15:54:10.712Z,4.50
2023-05-14T15:57:38.789Z,7.80
2023-05-14T16:01:05.733Z,4.70
2023-05-14T16:04:33.782Z,6.30
2023-05-14T16:08:01.931Z,5.10
2023-05-14T16:11:29.507Z,5.70
2023-05-14T16:15:01.517Z,4.80
2023-05-14T16:18:29.609Z,9.40
2023-05-14T16:21:58.809Z,4.10
2023-05-14T16:25:27.313Z,4.20
2023-05-14T16:28:55.125Z,4.70
2023-05-14T16:32:23.200Z,5.60
2023-05-14T16:35:50.704Z,7.10
2023-05-14T16:39:18.802Z,4.60
2023-05-14T16:42:48.513Z,6.60
2023-05-14T16:46:16.275Z,7.50
2023-05-14T16:49:46.409Z,5.80
2023-05-14T16:53:14.357Z,8.50
2023-05-14T16:56:48.448Z,7.20
2023-05-14T17:00:18.385Z,6.30
2023-05-14T17:03:48.908Z,7.00
2023-05-14T17:07:17.926Z,6.80
2023-05-14T17:10:45.286Z,6.00
2023-05-14T17:14:10.703Z,6.00
2023-05-14T17:17:39.256Z,6.40
2023-05-14T17:21:07.937Z,4.20
2023-05-14T17:24:36.669Z,6.60
2023-05-14T17:28:03.685Z,8.60
2023-05-14T17:31:32.451Z,11.00
2023-05-14T17:35:01.760Z,15.00
2023-05-14T17:38:28.843Z,16.00
2023-05-14T17:41:57.073Z,12.70
2023-05-14T17:45:24.160Z,15.70
2023-05-14T17:48:54.671Z,22.50
2023-05-14T17:52:21.604Z,22.30
2023-05-14T17:55:48.269Z,19.90
2023-05-14T17:59:21.156Z,14.50
2023-05-14T18:02:51.335Z,9.00
2023-05-14T18:06:18.581Z,14.40
2023-05-14T18:09:48.888Z,13.10
2023-05-14T18:13:16.451Z,21.10
2023-05-14T18:16:45.386Z,19.20
2023-05-14T18:20:14.488Z,14.30
2023-05-14T18:23:41.531Z,13.50
2023-05-14T18:27:10.055Z,14.50
2023-05-14T18:30:37.949Z,13.30
2023-05-14T18:34:05.089Z,13.20
2023-05-14T18:37:33.021Z,12.00
2023-05-14T18:41:00.797Z,12.40
2023-05-14T18:44:28.653Z,9.60
2023-05-14T18:47:56.904Z,11.50
2023-05-14T18:51:23.796Z,13.50
2023-05-14T18:54:52.586Z,12.80
2023-05-14T18:58:19.348Z,14.10
2023-05-14T19:01:46.323Z,16.80
2023-05-14T19:05:17.520Z,15.50
2023-05-14T19:08:50.414Z,17.30
2023-05-14T19:12:19.246Z,23.00
2023-05-14T19:15:47.187Z,23.90
2023-05-14T19:19:14.769Z,16.40
2023-05-14T19:22:41.760Z,14.40
2023-05-14T19:26:09.090Z,17.60
2023-05-14T19:29:37.212Z,15.90
2023-05-14T19:33:04.687Z,11.40
2023-05-14T19:36:33.448Z,22.10
2023-05-14T19:40:00.307Z,17.20
2023-05-14T19:43:30.134Z,15.20
2023-05-14T19:46:57.134Z,13.60
2023-05-14T19:50:24.521Z,21.60
2023-05-14T19:53:53.225Z,16.40
2023-05-14T19:57:20.528Z,20.40
2023-05-14T20:00:51.364Z,20.50
2023-05-14T20:04:18.467Z,20.80
2023-05-14T20:07:49.334Z,28.00
2023-05-14T20:11:18.216Z,32.50
2023-05-14T20:14:45.888Z,26.50
2023-05-14T20:18:17.543Z,23.80
2023-05-14T20:21:45.221Z,26.80
2023-05-14T20:25:13.965Z,22.00
2023-05-14T20:28:43.628Z,25.50
2023-05-14T20:32:12.804Z,22.50
2023-05-14T20:35:41.027Z,17.80
2023-05-14T20:39:07.785Z,18.30
2023-05-14T20:42:36.634Z,22.70
2023-05-14T20:46:09.407Z,22.00
2023-05-14T20:49:38.449Z,25.30
2023-05-14T20:53:07.452Z,18.30
2023-05-14T20:56:36.654Z,17.30
2023-05-14T21:00:07.310Z,17.40
2023-05-14T21:03:44.707Z,18.20
2023-05-14T21:07:12.186Z,17.80
2023-05-14T21:10:39.833Z,15.20
2023-05-14T21:14:07.344Z,17.30
2023-05-14T21:17:36.075Z,18.30
2023-05-14T21:21:05.560Z,20.90
2023-05-14T21:24:35.424Z,13.90
2023-05-14T21:28:05.018Z,20.00
2023-05-14T21:31:32.226Z,20.90
2023-05-14T21:35:00.058Z,14.30
2023-05-14T21:38:27.858Z,19.50
2023-05-14T21:41:55.988Z,14.70
2023-05-14T21:45:24.083Z,14.60
2023-05-14T21:48:51.805Z,12.80
2023-05-14T21:52:19.103Z,12.30
2023-05-14T21:55:46.707Z,12.00
2023-05-14T21:59:13.970Z,18.50
2023-05-14T22:02:41.297Z,16.20
2023-05-14T22:06:09.141Z,15.00
2023-05-14T22:09:36.067Z,14.00
2023-05-14T22:13:02.820Z,16.50
2023-05-14T22:16:29.626Z,21.80
2023-05-14T22:19:56.433Z,22.90
2023-05-14T22:23:23.864Z,22.90
2023-05-14T22:26:51.134Z,18.60
2023-05-14T22:30:18.643Z,19.10
2023-05-14T22:33:48.231Z,17.20
2023-05-14T22:37:14.945Z,18.10
2023-05-14T22:40:42.103Z,19.80
2023-05-14T22:44:10.196Z,21.70
2023-05-14T22:47:38.805Z,18.30
2023-05-14T22:51:06.640Z,18.30
2023-05-14T22:54:33.864Z,23.00
2023-05-14T22:58:01.129Z,20.00
2023-05-14T23:01:28.484Z,18.80
2023-05-14T23:04:55.879Z,19.80
2023-05-14T23:08:23.796Z,20.60
2023-05-14T23:11:50.940Z,19.00
2023-05-14T23:15:17.904Z,20.30
2023-05-14T23:18:44.611Z,19.50
2023-05-14T23:22:11.819Z,17.20
2023-05-14T23:25:38.632Z,14.80
2023-05-14T23:29:06.240Z,20.10
2023-05-14T23:32:33.243Z,16.30
2023-05-14T23:36:00.372Z,14.30
2023-05-14T23:39:27.488Z,16.30
2023-05-14T23:42:56.491Z,14.70
2023-05-14T23:46:24.345Z,19.00
2023-05-14T23:49:51.686Z,16.60
2023-05-14T23:53:19.863Z,18.70
2023-05-14T23:56:47.413Z,12.50
